sensor_id;sensor_type;location;lat;lon;timestamp;noise_LAeq;noise_LA_min;noise_LA_max;noise_LA01;noise_LA95
70077;Laerm;57448;51.490;5.436;2022-11-20T00:00:09;41.22;37.43;65.90;;
70077;Laerm;57448;51.490;5.436;2022-11-20T00:03:00;39.83;36.69;56.44;;
70077;Laerm;57448;51.490;5.436;2022-11-20T00:05:51;40.10;36.92;55.71;;
70077;Laerm;57448;51.490;5.436;2022-11-20T00:08:41;40.37;37.16;51.94;;
70077;Laerm;57448;51.490;5.436;2022-11-20T00:11:32;40.46;36.86;54.15;;
70077;Laerm;57448;51.490;5.436;2022-11-20T00:14:23;40.51;36.80;44.56;;
70077;Laerm;57448;51.490;5.436;2022-11-20T00:17:15;40.19;36.87;46.42;;
70077;Laerm;57448;51.490;5.436;2022-11-20T00:20:06;40.37;37.05;44.94;;
70077;Laerm;57448;51.490;5.436;2022-11-20T00:22:56;40.19;37.05;60.50;;
70077;Laerm;57448;51.490;5.436;2022-11-20T00:25:47;34.47;28.68;51.47;;
70077;Laerm;57448;51.490;5.436;2022-11-20T00:28:38;30.25;28.81;42.25;;
70077;Laerm;57448;51.490;5.436;2022-11-20T00:31:29;30.22;28.89;31.37;;
70077;Laerm;57448;51.490;5.436;2022-11-20T00:34:21;30.21;28.74;31.38;;
70077;Laerm;57448;51.490;5.436;2022-11-20T00:37:12;30.22;28.76;31.56;;
70077;Laerm;57448;51.490;5.436;2022-11-20T00:40:03;30.21;28.85;31.65;;
70077;Laerm;57448;51.490;5.436;2022-11-20T00:42:53;30.22;28.68;31.84;;
70077;Laerm;57448;51.490;5.436;2022-11-20T00:45:44;30.21;28.69;31.53;;
70077;Laerm;57448;51.490;5.436;2022-11-20T00:48:35;30.22;28.79;31.67;;
70077;Laerm;57448;51.490;5.436;2022-11-20T00:51:27;30.23;28.95;31.53;;
70077;Laerm;57448;51.490;5.436;2022-11-20T00:54:17;30.21;28.76;31.50;;
70077;Laerm;57448;51.490;5.436;2022-11-20T00:57:08;30.22;28.67;31.64;;
70077;Laerm;57448;51.490;5.436;2022-11-20T00:59:58;30.22;28.78;31.70;;
70077;Laerm;57448;51.490;5.436;2022-11-20T01:02:49;30.23;28.85;31.66;;
70077;Laerm;57448;51.490;5.436;2022-11-20T01:05:40;30.23;28.87;31.49;;
70077;Laerm;57448;51.490;5.436;2022-11-20T01:08:32;30.23;28.66;31.60;;
70077;Laerm;57448;51.490;5.436;2022-11-20T01:11:23;30.23;28.51;31.74;;
70077;Laerm;57448;51.490;5.436;2022-11-20T01:14:15;30.23;28.82;31.49;;
70077;Laerm;57448;51.490;5.436;2022-11-20T01:17:06;30.23;28.79;31.61;;
70077;Laerm;57448;51.490;5.436;2022-11-20T01:19:57;30.22;28.88;31.57;;
70077;Laerm;57448;51.490;5.436;2022-11-20T01:22:47;30.24;28.92;31.62;;
70077;Laerm;57448;51.490;5.436;2022-11-20T01:25:39;30.23;28.63;31.61;;
70077;Laerm;57448;51.490;5.436;2022-11-20T01:28:30;30.23;28.85;31.69;;
70077;Laerm;57448;51.490;5.436;2022-11-20T01:31:21;30.22;28.71;31.58;;
70077;Laerm;57448;51.490;5.436;2022-11-20T01:34:13;30.23;28.90;31.58;;
70077;Laerm;57448;51.490;5.436;2022-11-20T01:37:04;30.23;28.72;31.85;;
70077;Laerm;57448;51.490;5.436;2022-11-20T01:39:54;30.22;28.63;31.61;;
70077;Laerm;57448;51.490;5.436;2022-11-20T01:42:51;30.22;28.73;31.49;;
70077;Laerm;57448;51.490;5.436;2022-11-20T01:46:05;30.23;28.86;31.63;;
70077;Laerm;57448;51.490;5.436;2022-11-20T01:49:02;30.23;28.74;31.55;;
70077;Laerm;57448;51.490;5.436;2022-11-20T01:51:55;30.22;28.79;31.52;;
70077;Laerm;57448;51.490;5.436;2022-11-20T01:54:47;30.22;28.78;31.83;;
70077;Laerm;57448;51.490;5.436;2022-11-20T01:57:39;30.23;28.76;31.50;;
70077;Laerm;57448;51.490;5.436;2022-11-20T02:00:32;30.23;28.40;31.73;;
70077;Laerm;57448;51.490;5.436;2022-11-20T02:03:24;30.23;28.95;31.69;;
70077;Laerm;57448;51.490;5.436;2022-11-20T02:06:16;30.23;28.81;31.94;;
70077;Laerm;57448;51.490;5.436;2022-11-20T02:09:07;30.23;28.61;31.65;;
70077;Laerm;57448;51.490;5.436;2022-11-20T02:11:58;30.23;28.71;31.72;;
70077;Laerm;57448;51.490;5.436;2022-11-20T02:14:49;30.24;28.79;31.52;;
70077;Laerm;57448;51.490;5.436;2022-11-20T02:17:40;30.22;28.80;31.68;;
70077;Laerm;57448;51.490;5.436;2022-11-20T02:20:31;30.23;28.81;31.65;;
70077;Laerm;57448;51.490;5.436;2022-11-20T02:23:22;30.23;28.74;31.64;;
70077;Laerm;57448;51.490;5.436;2022-11-20T02:26:16;30.24;28.83;31.63;;
70077;Laerm;57448;51.490;5.436;2022-11-20T02:29:08;30.24;28.58;31.58;;
70077;Laerm;57448;51.490;5.436;2022-11-20T02:31:58;30.24;28.63;31.68;;
70077;Laerm;57448;51.490;5.436;2022-11-20T02:34:50;30.23;28.61;31.46;;
70077;Laerm;57448;51.490;5.436;2022-11-20T02:37:41;30.24;28.37;31.42;;
70077;Laerm;57448;51.490;5.436;2022-11-20T02:40:32;30.24;28.70;31.56;;
70077;Laerm;57448;51.490;5.436;2022-11-20T02:43:24;30.25;28.62;31.66;;
70077;Laerm;57448;51.490;5.436;2022-11-20T02:46:14;30.25;28.61;31.62;;
70077;Laerm;57448;51.490;5.436;2022-11-20T02:49:05;30.24;28.80;31.72;;
70077;Laerm;57448;51.490;5.436;2022-11-20T02:51:55;30.24;28.77;31.64;;
70077;Laerm;57448;51.490;5.436;2022-11-20T02:54:46;30.23;28.74;31.50;;
70077;Laerm;57448;51.490;5.436;2022-11-20T02:57:37;30.24;28.59;31.86;;
70077;Laerm;57448;51.490;5.436;2022-11-20T03:00:29;30.24;28.75;31.56;;
70077;Laerm;57448;51.490;5.436;2022-11-20T03:03:19;30.25;28.91;31.45;;
70077;Laerm;57448;51.490;5.436;2022-11-20T03:06:10;30.24;28.89;31.78;;
70077;Laerm;57448;51.490;5.436;2022-11-20T03:09:01;30.23;28.78;31.63;;
70077;Laerm;57448;51.490;5.436;2022-11-20T03:11:51;30.24;28.73;31.46;;
70077;Laerm;57448;51.490;5.436;2022-11-20T03:14:42;30.23;28.76;31.49;;
70077;Laerm;57448;51.490;5.436;2022-11-20T03:17:34;30.24;28.65;31.57;;
70077;Laerm;57448;51.490;5.436;2022-11-20T03:20:25;30.23;28.65;31.52;;
70077;Laerm;57448;51.490;5.436;2022-11-20T03:23:15;30.23;28.72;31.51;;
70077;Laerm;57448;51.490;5.436;2022-11-20T03:26:09;30.23;28.88;31.58;;
70077;Laerm;57448;51.490;5.436;2022-11-20T03:29:01;30.22;28.77;31.66;;
70077;Laerm;57448;51.490;5.436;2022-11-20T03:31:52;30.23;28.72;31.51;;
70077;Laerm;57448;51.490;5.436;2022-11-20T03:34:44;30.23;28.36;31.60;;
70077;Laerm;57448;51.490;5.436;2022-11-20T03:37:35;30.23;28.91;31.54;;
70077;Laerm;57448;51.490;5.436;2022-11-20T03:40:25;30.24;28.63;31.50;;
70077;Laerm;57448;51.490;5.436;2022-11-20T03:43:16;30.23;28.48;31.70;;
70077;Laerm;57448;51.490;5.436;2022-11-20T03:46:07;30.22;28.95;31.60;;
70077;Laerm;57448;51.490;5.436;2022-11-20T03:48:57;30.23;28.70;31.55;;
70077;Laerm;57448;51.490;5.436;2022-11-20T03:51:50;30.24;28.80;31.69;;
70077;Laerm;57448;51.490;5.436;2022-11-20T03:54:40;30.23;28.67;31.63;;
70077;Laerm;57448;51.490;5.436;2022-11-20T03:57:31;30.22;28.69;31.58;;
70077;Laerm;57448;51.490;5.436;2022-11-20T04:00:21;30.23;28.89;31.58;;
70077;Laerm;57448;51.490;5.436;2022-11-20T04:03:12;30.23;28.65;31.46;;
70077;Laerm;57448;51.490;5.436;2022-11-20T04:06:03;30.23;28.64;31.62;;
70077;Laerm;57448;51.490;5.436;2022-11-20T04:08:56;30.23;28.71;31.61;;
70077;Laerm;57448;51.490;5.436;2022-11-20T04:11:47;30.25;28.79;31.63;;
70077;Laerm;57448;51.490;5.436;2022-11-20T04:14:37;30.23;28.87;31.58;;
70077;Laerm;57448;51.490;5.436;2022-11-20T04:17:28;30.24;28.83;31.64;;
70077;Laerm;57448;51.490;5.436;2022-11-20T04:20:18;30.24;28.65;31.54;;
70077;Laerm;57448;51.490;5.436;2022-11-20T04:23:09;30.24;28.81;31.56;;
70077;Laerm;57448;51.490;5.436;2022-11-20T04:26:02;30.23;28.89;31.58;;
70077;Laerm;57448;51.490;5.436;2022-11-20T04:28:53;30.24;28.81;31.65;;
70077;Laerm;57448;51.490;5.436;2022-11-20T04:31:44;30.23;28.75;31.63;;
70077;Laerm;57448;51.490;5.436;2022-11-20T04:34:34;30.24;28.69;31.54;;
70077;Laerm;57448;51.490;5.436;2022-11-20T04:37:25;30.22;28.62;31.69;;
70077;Laerm;57448;51.490;5.436;2022-11-20T04:40:16;30.25;28.78;31.64;;
70077;Laerm;57448;51.490;5.436;2022-11-20T04:43:07;30.23;28.83;31.60;;
70077;Laerm;57448;51.490;5.436;2022-11-20T04:46:00;30.22;28.80;31.56;;
70077;Laerm;57448;51.490;5.436;2022-11-20T04:48:50;30.22;28.94;31.44;;
70077;Laerm;57448;51.490;5.436;2022-11-20T04:51:41;30.24;28.84;31.48;;
70077;Laerm;57448;51.490;5.436;2022-11-20T04:54:32;30.24;28.78;31.65;;
70077;Laerm;57448;51.490;5.436;2022-11-20T04:57:22;30.25;28.95;31.54;;
70077;Laerm;57448;51.490;5.436;2022-11-20T05:00:15;30.24;28.78;31.91;;
70077;Laerm;57448;51.490;5.436;2022-11-20T05:03:06;30.22;28.87;31.84;;
70077;Laerm;57448;51.490;5.436;2022-11-20T05:05:59;30.24;28.81;31.62;;
70077;Laerm;57448;51.490;5.436;2022-11-20T05:08:50;30.24;28.82;31.68;;
70077;Laerm;57448;51.490;5.436;2022-11-20T05:11:41;30.24;28.70;31.66;;
70077;Laerm;57448;51.490;5.436;2022-11-20T05:14:31;30.23;28.68;31.70;;
70077;Laerm;57448;51.490;5.436;2022-11-20T05:17:23;30.24;28.79;31.66;;
70077;Laerm;57448;51.490;5.436;2022-11-20T05:20:14;30.24;28.67;31.74;;
70077;Laerm;57448;51.490;5.436;2022-11-20T05:23:05;30.23;28.72;31.88;;
70077;Laerm;57448;51.490;5.436;2022-11-20T05:25:56;30.23;28.69;31.53;;
70077;Laerm;57448;51.490;5.436;2022-11-20T05:28:47;30.24;28.76;31.54;;
70077;Laerm;57448;51.490;5.436;2022-11-20T05:31:38;30.23;28.74;31.63;;
70077;Laerm;57448;51.490;5.436;2022-11-20T05:34:30;30.23;28.80;32.10;;
70077;Laerm;57448;51.490;5.436;2022-11-20T05:37:21;30.23;28.74;31.60;;
70077;Laerm;57448;51.490;5.436;2022-11-20T05:40:11;30.23;28.61;31.64;;
70077;Laerm;57448;51.490;5.436;2022-11-20T05:43:02;30.24;28.81;31.55;;
70077;Laerm;57448;51.490;5.436;2022-11-20T05:45:53;30.23;28.78;31.58;;
70077;Laerm;57448;51.490;5.436;2022-11-20T05:48:44;30.22;28.51;31.42;;
70077;Laerm;57448;51.490;5.436;2022-11-20T05:51:36;30.24;28.87;31.94;;
70077;Laerm;57448;51.490;5.436;2022-11-20T05:54:27;30.23;28.52;31.66;;
70077;Laerm;57448;51.490;5.436;2022-11-20T05:57:18;30.23;28.79;31.52;;
70077;Laerm;57448;51.490;5.436;2022-11-20T06:00:09;30.23;28.95;31.43;;
70077;Laerm;57448;51.490;5.436;2022-11-20T06:03:00;30.23;28.71;31.73;;
70077;Laerm;57448;51.490;5.436;2022-11-20T06:05:50;30.23;29.01;31.54;;
70077;Laerm;57448;51.490;5.436;2022-11-20T06:08:42;30.24;28.71;31.43;;
70077;Laerm;57448;51.490;5.436;2022-11-20T06:11:33;30.23;28.65;31.51;;
70077;Laerm;57448;51.490;5.436;2022-11-20T06:14:24;30.23;28.81;31.51;;
70077;Laerm;57448;51.490;5.436;2022-11-20T06:17:14;30.22;28.60;31.57;;
70077;Laerm;57448;51.490;5.436;2022-11-20T06:20:05;30.22;28.82;31.50;;
70077;Laerm;57448;51.490;5.436;2022-11-20T06:22:56;30.23;28.55;31.48;;
70077;Laerm;57448;51.490;5.436;2022-11-20T06:25:48;30.23;28.82;31.56;;
70077;Laerm;57448;51.490;5.436;2022-11-20T06:28:39;30.23;28.72;31.70;;
70077;Laerm;57448;51.490;5.436;2022-11-20T06:31:29;30.22;28.80;31.64;;
70077;Laerm;57448;51.490;5.436;2022-11-20T06:34:22;30.21;28.81;31.66;;
70077;Laerm;57448;51.490;5.436;2022-11-20T06:37:12;30.22;28.89;31.50;;
70077;Laerm;57448;51.490;5.436;2022-11-20T06:40:03;30.23;28.79;31.75;;
70077;Laerm;57448;51.490;5.436;2022-11-20T06:42:55;30.22;28.81;31.48;;
70077;Laerm;57448;51.490;5.436;2022-11-20T06:45:46;30.21;28.65;31.70;;
70077;Laerm;57448;51.490;5.436;2022-11-20T06:48:37;30.23;28.89;31.72;;
70077;Laerm;57448;51.490;5.436;2022-11-20T06:51:27;30.23;28.89;32.28;;
70077;Laerm;57448;51.490;5.436;2022-11-20T06:54:18;30.22;28.86;31.59;;
70077;Laerm;57448;51.490;5.436;2022-11-20T06:57:08;30.24;28.76;31.54;;
70077;Laerm;57448;51.490;5.436;2022-11-20T07:00:00;30.23;28.92;31.55;;
70077;Laerm;57448;51.490;5.436;2022-11-20T07:02:51;30.23;28.71;31.82;;
70077;Laerm;57448;51.490;5.436;2022-11-20T07:05:42;30.24;28.92;32.15;;
70077;Laerm;57448;51.490;5.436;2022-11-20T07:08:33;30.24;28.87;31.68;;
70077;Laerm;57448;51.490;5.436;2022-11-20T07:11:24;30.23;28.96;31.64;;
70077;Laerm;57448;51.490;5.436;2022-11-20T07:14:14;30.23;28.96;31.71;;
70077;Laerm;57448;51.490;5.436;2022-11-20T07:17:06;30.24;28.68;31.74;;
70077;Laerm;57448;51.490;5.436;2022-11-20T07:19:57;30.24;28.94;31.43;;
70077;Laerm;57448;51.490;5.436;2022-11-20T07:22:52;30.24;28.61;31.43;;
70077;Laerm;57448;51.490;5.436;2022-11-20T07:25:43;30.27;28.70;44.82;;
70077;Laerm;57448;51.490;5.436;2022-11-20T07:28:33;30.25;28.84;31.83;;
70077;Laerm;57448;51.490;5.436;2022-11-20T07:31:24;30.24;28.57;31.47;;
70077;Laerm;57448;51.490;5.436;2022-11-20T07:34:16;30.24;28.66;31.62;;
70077;Laerm;57448;51.490;5.436;2022-11-20T07:37:07;30.23;28.64;31.77;;
70077;Laerm;57448;51.490;5.436;2022-11-20T07:39:57;30.24;29.00;31.45;;
70077;Laerm;57448;51.490;5.436;2022-11-20T07:42:48;30.25;28.85;31.49;;
70077;Laerm;57448;51.490;5.436;2022-11-20T07:45:39;30.27;28.88;44.67;;
70077;Laerm;57448;51.490;5.436;2022-11-20T07:48:30;30.24;28.33;31.72;;
70077;Laerm;57448;51.490;5.436;2022-11-20T07:51:22;30.25;28.79;31.54;;
70077;Laerm;57448;51.490;5.436;2022-11-20T07:54:12;30.24;28.76;31.76;;
70077;Laerm;57448;51.490;5.436;2022-11-20T07:57:03;40.16;28.64;76.59;;
70077;Laerm;57448;51.490;5.436;2022-11-20T07:59:54;30.23;28.59;32.80;;
70077;Laerm;57448;51.490;5.436;2022-11-20T08:02:44;30.22;28.65;31.62;;
70077;Laerm;57448;51.490;5.436;2022-11-20T08:05:35;30.22;28.76;36.67;;
70077;Laerm;57448;51.490;5.436;2022-11-20T08:08:26;33.14;28.79;66.94;;
70077;Laerm;57448;51.490;5.436;2022-11-20T08:11:15;30.26;28.77;45.36;;
70077;Laerm;57448;51.490;5.436;2022-11-20T08:14:22;31.69;28.63;59.71;;
70077;Laerm;57448;51.490;5.436;2022-11-20T08:17:11;34.07;28.69;67.02;;
70077;Laerm;57448;51.490;5.436;2022-11-20T08:19:59;37.53;28.93;71.40;;
70077;Laerm;57448;51.490;5.436;2022-11-20T08:22:48;53.73;30.21;88.21;;
70077;Laerm;57448;51.490;5.436;2022-11-20T08:25:38;35.56;30.68;64.99;;
70077;Laerm;57448;51.490;5.436;2022-11-20T08:28:27;37.84;33.03;53.06;;
70077;Laerm;57448;51.490;5.436;2022-11-20T08:31:16;40.20;35.84;54.47;;
70077;Laerm;57448;51.490;5.436;2022-11-20T08:34:05;42.04;37.72;54.88;;
70077;Laerm;57448;51.490;5.436;2022-11-20T08:36:53;40.55;37.38;62.38;;
70077;Laerm;57448;51.490;5.436;2022-11-20T08:39:42;52.67;37.11;67.92;;
70077;Laerm;57448;51.490;5.436;2022-11-20T08:42:32;52.21;38.21;79.67;;
70077;Laerm;57448;51.490;5.436;2022-11-20T08:45:21;41.04;37.12;52.63;;
70077;Laerm;57448;51.490;5.436;2022-11-20T08:48:10;41.72;37.56;56.78;;
70077;Laerm;57448;51.490;5.436;2022-11-20T08:50:59;40.64;37.44;47.08;;
70077;Laerm;57448;51.490;5.436;2022-11-20T08:53:47;39.52;37.01;52.20;;
70077;Laerm;57448;51.490;5.436;2022-11-20T08:56:37;39.00;36.55;43.80;;
70077;Laerm;57448;51.490;5.436;2022-11-20T08:59:27;39.55;37.09;44.83;;
70077;Laerm;57448;51.490;5.436;2022-11-20T09:02:16;40.23;36.88;58.16;;
70077;Laerm;57448;51.490;5.436;2022-11-20T09:05:05;40.96;37.23;56.85;;
70077;Laerm;57448;51.490;5.436;2022-11-20T09:07:55;42.82;37.45;74.17;;
70077;Laerm;57448;51.490;5.436;2022-11-20T09:10:44;45.37;37.29;76.68;;
70077;Laerm;57448;51.490;5.436;2022-11-20T09:13:34;39.69;36.63;48.89;;
70077;Laerm;57448;51.490;5.436;2022-11-20T09:16:24;40.89;36.50;62.24;;
70077;Laerm;57448;51.490;5.436;2022-11-20T09:19:13;40.77;37.24;50.76;;
70077;Laerm;57448;51.490;5.436;2022-11-20T09:22:02;39.59;37.19;53.70;;
70077;Laerm;57448;51.490;5.436;2022-11-20T09:24:51;39.22;36.73;50.85;;
70077;Laerm;57448;51.490;5.436;2022-11-20T09:27:39;39.69;36.98;59.00;;
70077;Laerm;57448;51.490;5.436;2022-11-20T09:30:29;53.06;37.69;68.41;;
70077;Laerm;57448;51.490;5.436;2022-11-20T09:33:19;39.96;37.26;58.09;;
70077;Laerm;57448;51.490;5.436;2022-11-20T09:36:08;39.94;37.33;52.03;;
70077;Laerm;57448;51.490;5.436;2022-11-20T09:38:57;39.92;37.48;56.83;;
70077;Laerm;57448;51.490;5.436;2022-11-20T09:41:53;55.02;38.28;70.89;;
70077;Laerm;57448;51.490;5.436;2022-11-20T09:44:49;40.76;38.24;53.22;;
70077;Laerm;57448;51.490;5.436;2022-11-20T09:47:44;41.18;38.10;55.07;;
70077;Laerm;57448;51.490;5.436;2022-11-20T09:50:40;53.83;37.48;69.62;;
70077;Laerm;57448;51.490;5.436;2022-11-20T09:53:35;53.91;37.66;68.41;;
70077;Laerm;57448;51.490;5.436;2022-11-20T09:56:28;42.50;37.84;61.59;;
70077;Laerm;57448;51.490;5.436;2022-11-20T09:59:25;41.71;38.28;51.89;;
70077;Laerm;57448;51.490;5.436;2022-11-20T10:02:19;41.23;38.27;53.42;;
70077;Laerm;57448;51.490;5.436;2022-11-20T10:05:15;53.19;38.04;83.89;;
70077;Laerm;57448;51.490;5.436;2022-11-20T10:08:10;41.08;37.71;47.44;;
70077;Laerm;57448;51.490;5.436;2022-11-20T10:11:04;41.93;38.22;50.87;;
70077;Laerm;57448;51.490;5.436;2022-11-20T10:13:55;42.18;38.59;55.27;;
70077;Laerm;57448;51.490;5.436;2022-11-20T10:16:50;42.19;38.66;50.51;;
70077;Laerm;57448;51.490;5.436;2022-11-20T10:19:45;43.95;38.84;61.83;;
70077;Laerm;57448;51.490;5.436;2022-11-20T10:22:40;43.17;39.05;63.94;;
70077;Laerm;57448;51.490;5.436;2022-11-20T10:25:36;44.35;39.26;54.45;;
70077;Laerm;57448;51.490;5.436;2022-11-20T10:28:29;43.12;38.97;55.20;;
70077;Laerm;57448;51.490;5.436;2022-11-20T10:31:25;42.21;39.13;46.34;;
70077;Laerm;57448;51.490;5.436;2022-11-20T10:34:19;42.07;38.83;55.04;;
70077;Laerm;57448;51.490;5.436;2022-11-20T10:37:09;44.03;38.74;55.91;;
70077;Laerm;57448;51.490;5.436;2022-11-20T10:40:01;43.58;39.43;52.32;;
70077;Laerm;57448;51.490;5.436;2022-11-20T10:42:57;44.19;38.92;60.99;;
70077;Laerm;57448;51.490;5.436;2022-11-20T10:45:52;42.07;38.74;49.94;;
70077;Laerm;57448;51.490;5.436;2022-11-20T10:48:43;45.48;39.45;63.39;;
70077;Laerm;57448;51.490;5.436;2022-11-20T10:51:35;55.65;38.96;70.10;;
70077;Laerm;57448;51.490;5.436;2022-11-20T10:54:28;46.29;39.58;56.90;;
70077;Laerm;57448;51.490;5.436;2022-11-20T10:57:24;44.26;38.63;53.70;;
70077;Laerm;57448;51.490;5.436;2022-11-20T11:00:15;42.89;38.77;55.85;;
70077;Laerm;57448;51.490;5.436;2022-11-20T11:03:07;41.76;37.94;54.84;;
70077;Laerm;57448;51.490;5.436;2022-11-20T11:06:06;52.47;38.73;68.27;;
70077;Laerm;57448;51.490;5.436;2022-11-20T11:08:58;43.19;38.77;59.34;;
70077;Laerm;57448;51.490;5.436;2022-11-20T11:11:50;43.45;38.57;64.20;;
70077;Laerm;57448;51.490;5.436;2022-11-20T11:14:44;42.13;38.34;66.58;;
70077;Laerm;57448;51.490;5.436;2022-11-20T11:17:35;41.37;37.92;62.70;;
70077;Laerm;57448;51.490;5.436;2022-11-20T11:20:24;40.78;37.44;63.71;;
70077;Laerm;57448;51.490;5.436;2022-11-20T11:23:22;56.36;37.67;77.13;;
70077;Laerm;57448;51.490;5.436;2022-11-20T11:26:19;42.58;37.95;56.02;;
70077;Laerm;57448;51.490;5.436;2022-11-20T11:29:16;42.65;37.93;54.62;;
70077;Laerm;57448;51.490;5.436;2022-11-20T11:32:07;40.42;37.32;57.17;;
70077;Laerm;57448;51.490;5.436;2022-11-20T11:35:01;40.24;37.76;55.50;;
70077;Laerm;57448;51.490;5.436;2022-11-20T11:37:51;54.27;39.18;75.31;;
70077;Laerm;57448;51.490;5.436;2022-11-20T11:40:41;42.69;38.65;54.92;;
70077;Laerm;57448;51.490;5.436;2022-11-20T11:43:31;43.00;38.76;61.77;;
70077;Laerm;57448;51.490;5.436;2022-11-20T11:46:40;41.22;38.52;50.05;;
70077;Laerm;57448;51.490;5.436;2022-11-20T11:49:34;41.40;38.55;54.60;;
70077;Laerm;57448;51.490;5.436;2022-11-20T11:52:26;51.68;38.71;67.12;;
70077;Laerm;57448;51.490;5.436;2022-11-20T11:55:19;49.91;38.83;68.99;;
70077;Laerm;57448;51.490;5.436;2022-11-20T11:58:18;49.46;38.57;65.74;;
70077;Laerm;57448;51.490;5.436;2022-11-20T12:01:13;41.71;38.88;45.56;;
70077;Laerm;57448;51.490;5.436;2022-11-20T12:04:10;43.14;38.52;56.27;;
70077;Laerm;57448;51.490;5.436;2022-11-20T12:07:07;46.43;37.88;79.12;;
70077;Laerm;57448;51.490;5.436;2022-11-20T12:10:00;41.29;38.36;56.39;;
70077;Laerm;57448;51.490;5.436;2022-11-20T12:12:53;53.71;38.52;69.63;;
70077;Laerm;57448;51.490;5.436;2022-11-20T12:15:45;42.22;39.44;56.10;;
70077;Laerm;57448;51.490;5.436;2022-11-20T12:18:37;43.15;39.50;54.44;;
70077;Laerm;57448;51.490;5.436;2022-11-20T12:21:31;43.21;38.98;67.60;;
70077;Laerm;57448;51.490;5.436;2022-11-20T12:24:32;41.77;38.96;52.74;;
70077;Laerm;57448;51.490;5.436;2022-11-20T12:27:34;43.21;38.87;52.09;;
70077;Laerm;57448;51.490;5.436;2022-11-20T12:30:27;50.91;39.00;66.18;;
70077;Laerm;57448;51.490;5.436;2022-11-20T12:33:20;46.64;39.11;79.49;;
70077;Laerm;57448;51.490;5.436;2022-11-20T12:36:17;41.32;38.81;53.68;;
70077;Laerm;57448;51.490;5.436;2022-11-20T12:39:13;43.06;39.08;57.70;;
70077;Laerm;57448;51.490;5.436;2022-11-20T12:42:22;42.17;39.12;51.26;;
70077;Laerm;57448;51.490;5.436;2022-11-20T12:45:42;44.66;39.01;57.26;;
70077;Laerm;57448;51.490;5.436;2022-11-20T12:51:57;44.82;39.18;76.54;;
70077;Laerm;57448;51.490;5.436;2022-11-20T12:54:55;42.67;39.68;50.21;;
70077;Laerm;57448;51.490;5.436;2022-11-20T12:57:50;51.41;39.83;71.29;;
70077;Laerm;57448;51.490;5.436;2022-11-20T13:00:52;45.90;39.84;66.54;;
70077;Laerm;57448;51.490;5.436;2022-11-20T13:03:44;42.48;39.71;62.66;;
70077;Laerm;57448;51.490;5.436;2022-11-20T13:06:38;45.43;39.70;71.45;;
70077;Laerm;57448;51.490;5.436;2022-11-20T13:09:29;46.49;40.79;74.46;;
70077;Laerm;57448;51.490;5.436;2022-11-20T13:12:19;45.60;40.42;76.08;;
70077;Laerm;57448;51.490;5.436;2022-11-20T13:15:15;44.81;41.07;65.32;;
70077;Laerm;57448;51.490;5.436;2022-11-20T13:18:09;43.70;40.53;60.25;;
70077;Laerm;57448;51.490;5.436;2022-11-20T13:20:59;44.87;39.98;55.50;;
70077;Laerm;57448;51.490;5.436;2022-11-20T13:23:48;43.57;40.23;66.13;;
70077;Laerm;57448;51.490;5.436;2022-11-20T13:26:37;43.11;39.84;51.97;;
70077;Laerm;57448;51.490;5.436;2022-11-20T13:29:26;54.96;40.40;70.36;;
70077;Laerm;57448;51.490;5.436;2022-11-20T13:32:15;59.00;40.25;90.10;;
70077;Laerm;57448;51.490;5.436;2022-11-20T13:35:08;57.97;39.76;89.78;;
70077;Laerm;57448;51.490;5.436;2022-11-20T13:38:03;53.43;41.47;68.92;;
70077;Laerm;57448;51.490;5.436;2022-11-20T13:40:53;55.17;41.59;72.58;;
70077;Laerm;57448;51.490;5.436;2022-11-20T13:43:42;54.94;40.31;72.55;;
70077;Laerm;57448;51.490;5.436;2022-11-20T13:46:37;43.51;40.11;59.13;;
70077;Laerm;57448;51.490;5.436;2022-11-20T13:49:27;43.68;40.10;55.92;;
70077;Laerm;57448;51.490;5.436;2022-11-20T13:52:29;47.16;40.13;75.49;;
70077;Laerm;57448;51.490;5.436;2022-11-20T13:55:23;44.53;40.82;69.03;;
70077;Laerm;57448;51.490;5.436;2022-11-20T13:58:18;43.69;39.92;66.96;;
70077;Laerm;57448;51.490;5.436;2022-11-20T14:01:14;50.89;40.17;66.96;;
70077;Laerm;57448;51.490;5.436;2022-11-20T14:04:06;44.67;41.11;52.33;;
70077;Laerm;57448;51.490;5.436;2022-11-20T14:06:58;44.69;39.57;61.82;;
70077;Laerm;57448;51.490;5.436;2022-11-20T14:09:51;44.35;39.99;54.29;;
70077;Laerm;57448;51.490;5.436;2022-11-20T14:12:42;43.15;40.05;56.47;;
70077;Laerm;57448;51.490;5.436;2022-11-20T14:15:33;43.74;39.71;60.29;;
70077;Laerm;57448;51.490;5.436;2022-11-20T14:18:25;44.31;40.16;55.67;;
70077;Laerm;57448;51.490;5.436;2022-11-20T14:21:23;44.46;40.30;60.77;;
70077;Laerm;57448;51.490;5.436;2022-11-20T14:24:18;49.46;40.49;71.27;;
70077;Laerm;57448;51.490;5.436;2022-11-20T14:27:13;50.55;41.60;77.44;;
70077;Laerm;57448;51.490;5.436;2022-11-20T14:30:04;56.10;43.50;77.90;;
70077;Laerm;57448;51.490;5.436;2022-11-20T14:32:56;55.14;44.10;85.18;;
70077;Laerm;57448;51.490;5.436;2022-11-20T14:35:48;58.86;44.79;84.57;;
70077;Laerm;57448;51.490;5.436;2022-11-20T14:38:40;55.08;45.29;84.22;;
70077;Laerm;57448;51.490;5.436;2022-11-20T14:41:31;56.18;44.87;82.46;;
70077;Laerm;57448;51.490;5.436;2022-11-20T14:44:25;58.23;45.75;87.01;;
70077;Laerm;57448;51.490;5.436;2022-11-20T14:47:17;57.35;45.60;84.49;;
70077;Laerm;57448;51.490;5.436;2022-11-20T14:50:12;60.48;45.68;88.17;;
70077;Laerm;57448;51.490;5.436;2022-11-20T14:53:03;62.31;48.40;89.25;;
70077;Laerm;57448;51.490;5.436;2022-11-20T14:55:55;60.06;48.18;89.81;;
70077;Laerm;57448;51.490;5.436;2022-11-20T14:58:54;61.59;47.93;88.54;;
70077;Laerm;57448;51.490;5.436;2022-11-20T15:01:54;57.88;44.75;85.93;;
70077;Laerm;57448;51.490;5.436;2022-11-20T15:04:46;51.46;43.90;74.50;;
70077;Laerm;57448;51.490;5.436;2022-11-20T15:07:37;53.89;43.61;75.98;;
70077;Laerm;57448;51.490;5.436;2022-11-20T15:10:29;54.38;43.72;79.69;;
70077;Laerm;57448;51.490;5.436;2022-11-20T15:13:23;48.12;43.24;68.51;;
70077;Laerm;57448;51.490;5.436;2022-11-20T15:16:17;45.64;42.45;56.64;;
70077;Laerm;57448;51.490;5.436;2022-11-20T15:19:11;48.35;43.16;69.76;;
70077;Laerm;57448;51.490;5.436;2022-11-20T15:22:07;45.68;42.55;59.11;;
70077;Laerm;57448;51.490;5.436;2022-11-20T15:24:59;47.86;42.54;70.47;;
70077;Laerm;57448;51.490;5.436;2022-11-20T15:27:51;50.49;42.60;66.92;;
70077;Laerm;57448;51.490;5.436;2022-11-20T15:30:43;45.77;41.81;63.37;;
70077;Laerm;57448;51.490;5.436;2022-11-20T15:33:33;45.13;42.02;60.47;;
70077;Laerm;57448;51.490;5.436;2022-11-20T15:36:25;47.19;42.17;70.30;;
70077;Laerm;57448;51.490;5.436;2022-11-20T15:39:16;48.71;42.74;75.87;;
70077;Laerm;57448;51.490;5.436;2022-11-20T15:42:07;46.41;41.89;72.05;;
70077;Laerm;57448;51.490;5.436;2022-11-20T15:44:57;46.24;42.06;66.16;;
70077;Laerm;57448;51.490;5.436;2022-11-20T15:47:48;51.78;42.12;65.47;;
70077;Laerm;57448;51.490;5.436;2022-11-20T15:50:41;52.57;41.69;69.39;;
70077;Laerm;57448;51.490;5.436;2022-11-20T15:53:36;45.71;41.98;59.75;;
70077;Laerm;57448;51.490;5.436;2022-11-20T15:56:27;46.10;41.92;71.25;;
70077;Laerm;57448;51.490;5.436;2022-11-20T15:59:18;52.69;41.41;68.74;;
70077;Laerm;57448;51.490;5.436;2022-11-20T16:02:09;48.74;41.27;67.49;;
70077;Laerm;57448;51.490;5.436;2022-11-20T16:05:00;44.14;40.89;54.88;;